sensor_id;sensor_type;location;lat;lon;timestamp;P1;durP1;ratioP1;P2;durP2;ratioP2
39340;SDS011;25059;52.132;21.062;2023-05-14T10:37:04;0.40;;;0.40;;
39340;SDS011;25059;52.132;21.062;2023-05-14T10:42:43;0.10;;;0.10;;
39340;SDS011;25059;52.132;21.062;2023-05-14T10:45:30;0.30;;;0.30;;
39340;SDS011;25059;52.132;21.062;2023-05-14T10:48:16;0.30;;;0.30;;
39340;SDS011;25059;52.132;21.062;2023-05-14T10:51:02;0.43;;;0.43;;
39340;SDS011;25059;52.132;21.062;2023-05-14T10:53:47;0.35;;;0.35;;
39340;SDS011;25059;52.132;21.062;2023-05-14T10:56:31;0.40;;;0.40;;
39340;SDS011;25059;52.132;21.062;2023-05-14T10:59:16;0.52;;;0.52;;
39340;SDS011;25059;52.132;21.062;2023-05-14T11:02:03;0.55;;;0.55;;
39340;SDS011;25059;52.132;21.062;2023-05-14T11:05:04;0.50;;;0.50;;
39340;SDS011;25059;52.132;21.062;2023-05-14T11:07:51;0.63;;;0.63;;
39340;SDS011;25059;52.132;21.062;2023-05-14T11:10:40;0.70;;;0.70;;
39340;SDS011;25059;52.132;21.062;2023-05-14T11:13:26;0.70;;;0.70;;
39340;SDS011;25059;52.132;21.062;2023-05-14T11:16:10;0.65;;;0.65;;
39340;SDS011;25059;52.132;21.062;2023-05-14T11:18:59;0.52;;;0.52;;
39340;SDS011;25059;52.132;21.062;2023-05-14T11:21:46;0.60;;;0.60;;
39340;SDS011;25059;52.132;21.062;2023-05-14T11:24:31;0.77;;;0.77;;
39340;SDS011;25059;52.132;21.062;2023-05-14T11:27:16;0.73;;;0.73;;
39340;SDS011;25059;52.132;21.062;2023-05-14T11:30:01;0.60;;;0.60;;
39340;SDS011;25059;52.132;21.062;2023-05-14T11:32:47;0.70;;;0.70;;
39340;SDS011;25059;52.132;21.062;2023-05-14T11:35:34;0.70;;;0.70;;
39340;SDS011;25059;52.132;21.062;2023-05-14T11:38:19;0.80;;;0.80;;
39340;SDS011;25059;52.132;21.062;2023-05-14T11:41:04;0.70;;;0.70;;
39340;SDS011;25059;52.132;21.062;2023-05-14T11:43:49;0.70;;;0.70;;
39340;SDS011;25059;52.132;21.062;2023-05-14T11:46:34;0.75;;;0.75;;
39340;SDS011;25059;52.132;21.062;2023-05-14T11:49:20;0.85;;;0.85;;
39340;SDS011;25059;52.132;21.062;2023-05-14T11:52:07;0.70;;;0.70;;
39340;SDS011;25059;52.132;21.062;2023-05-14T11:57:39;0.70;;;0.70;;
39340;SDS011;25059;52.132;21.062;2023-05-14T12:00:24;0.93;;;0.93;;
39340;SDS011;25059;52.132;21.062;2023-05-14T12:03:10;1.30;;;1.30;;
39340;SDS011;25059;52.132;21.062;2023-05-14T12:08:40;1.10;;;1.10;;
39340;SDS011;25059;52.132;21.062;2023-05-14T12:11:24;1.00;;;1.00;;
39340;SDS011;25059;52.132;21.062;2023-05-14T12:14:14;0.90;;;0.90;;
39340;SDS011;25059;52.132;21.062;2023-05-14T12:16:59;1.10;;;1.10;;
39340;SDS011;25059;52.132;21.062;2023-05-14T12:19:46;1.00;;;1.00;;
39340;SDS011;25059;52.132;21.062;2023-05-14T12:22:33;1.00;;;1.00;;
39340;SDS011;25059;52.132;21.062;2023-05-14T12:25:17;1.05;;;1.05;;
39340;SDS011;25059;52.132;21.062;2023-05-14T12:28:01;0.60;;;0.60;;
39340;SDS011;25059;52.132;21.062;2023-05-14T12:30:57;0.68;;;0.68;;
39340;SDS011;25059;52.132;21.062;2023-05-14T12:33:42;0.65;;;0.65;;
39340;SDS011;25059;52.132;21.062;2023-05-14T12:36:27;0.90;;;0.90;;
39340;SDS011;25059;52.132;21.062;2023-05-14T12:39:12;0.85;;;0.85;;
39340;SDS011;25059;52.132;21.062;2023-05-14T12:41:57;0.70;;;0.70;;
39340;SDS011;25059;52.132;21.062;2023-05-14T12:44:42;0.73;;;0.73;;
39340;SDS011;25059;52.132;21.062;2023-05-14T12:47:27;0.80;;;0.80;;
39340;SDS011;25059;52.132;21.062;2023-05-14T12:50:11;0.70;;;0.70;;
39340;SDS011;25059;52.132;21.062;2023-05-14T12:52:56;0.55;;;0.55;;
39340;SDS011;25059;52.132;21.062;2023-05-14T12:55:41;0.70;;;0.70;;
39340;SDS011;25059;52.132;21.062;2023-05-14T12:58:25;0.68;;;0.68;;
39340;SDS011;25059;52.132;21.062;2023-05-14T13:01:10;0.63;;;0.63;;
39340;SDS011;25059;52.132;21.062;2023-05-14T13:03:55;0.65;;;0.65;;
39340;SDS011;25059;52.132;21.062;2023-05-14T13:06:41;0.40;;;0.40;;
39340;SDS011;25059;52.132;21.062;2023-05-14T13:09:25;0.22;;;0.22;;
39340;SDS011;25059;52.132;21.062;2023-05-14T13:12:10;0.40;;;0.40;;
39340;SDS011;25059;52.132;21.062;2023-05-14T13:14:55;0.43;;;0.43;;
39340;SDS011;25059;52.132;21.062;2023-05-14T13:17:39;0.20;;;0.20;;
39340;SDS011;25059;52.132;21.062;2023-05-14T13:20:24;0.10;;;0.10;;
39340;SDS011;25059;52.132;21.062;2023-05-14T13:23:10;0.20;;;0.20;;
39340;SDS011;25059;52.132;21.062;2023-05-14T13:25:55;0.20;;;0.20;;
39340;SDS011;25059;52.132;21.062;2023-05-14T13:28:39;0.28;;;0.28;;
39340;SDS011;25059;52.132;21.062;2023-05-14T13:31:24;0.20;;;0.20;;
39340;SDS011;25059;52.132;21.062;2023-05-14T13:34:09;0.40;;;0.40;;
39340;SDS011;25059;52.132;21.062;2023-05-14T13:40:29;0.30;;;0.30;;
39340;SDS011;25059;52.132;21.062;2023-05-14T13:43:14;0.20;;;0.20;;
39340;SDS011;25059;52.132;21.062;2023-05-14T13:46:00;0.40;;;0.40;;
39340;SDS011;25059;52.132;21.062;2023-05-14T13:48:46;0.28;;;0.28;;
39340;SDS011;25059;52.132;21.062;2023-05-14T13:51:30;0.30;;;0.30;;
39340;SDS011;25059;52.132;21.062;2023-05-14T13:54:15;0.40;;;0.40;;
39340;SDS011;25059;52.132;21.062;2023-05-14T13:56:59;0.50;;;0.50;;
39340;SDS011;25059;52.132;21.062;2023-05-14T13:59:45;0.50;;;0.50;;
39340;SDS011;25059;52.132;21.062;2023-05-14T14:02:30;0.40;;;0.40;;
39340;SDS011;25059;52.132;21.062;2023-05-14T14:05:14;0.60;;;0.60;;
39340;SDS011;25059;52.132;21.062;2023-05-14T14:07:59;0.90;;;0.90;;
39340;SDS011;25059;52.132;21.062;2023-05-14T14:10:44;0.60;;;0.60;;
39340;SDS011;25059;52.132;21.062;2023-05-14T14:13:28;0.68;;;0.68;;
39340;SDS011;25059;52.132;21.062;2023-05-14T14:19:45;0.90;;;0.90;;
39340;SDS011;25059;52.132;21.062;2023-05-14T14:22:29;0.60;;;0.60;;
39340;SDS011;25059;52.132;21.062;2023-05-14T14:25:14;0.70;;;0.70;;
39340;SDS011;25059;52.132;21.062;2023-05-14T14:27:58;0.73;;;0.73;;
39340;SDS011;25059;52.132;21.062;2023-05-14T14:30:43;0.80;;;0.80;;
39340;SDS011;25059;52.132;21.062;2023-05-14T14:33:27;0.70;;;0.70;;
39340;SDS011;25059;52.132;21.062;2023-05-14T14:36:12;0.70;;;0.70;;
39340;SDS011;25059;52.132;21.062;2023-05-14T14:38:56;0.80;;;0.80;;
39340;SDS011;25059;52.132;21.062;2023-05-14T14:41:41;0.70;;;0.70;;
39340;SDS011;25059;52.132;21.062;2023-05-14T14:44:25;0.80;;;0.80;;
39340;SDS011;25059;52.132;21.062;2023-05-14T14:47:09;0.70;;;0.70;;
39340;SDS011;25059;52.132;21.062;2023-05-14T14:49:54;0.70;;;0.70;;
39340;SDS011;25059;52.132;21.062;2023-05-14T14:52:40;0.80;;;0.80;;
39340;SDS011;25059;52.132;21.062;2023-05-14T14:55:27;0.80;;;0.80;;
39340;SDS011;25059;52.132;21.062;2023-05-14T14:58:11;0.70;;;0.70;;
39340;SDS011;25059;52.132;21.062;2023-05-14T15:00:56;0.70;;;0.70;;
39340;SDS011;25059;52.132;21.062;2023-05-14T15:03:41;0.63;;;0.63;;
39340;SDS011;25059;52.132;21.062;2023-05-14T15:06:28;0.90;;;0.90;;
39340;SDS011;25059;52.132;21.062;2023-05-14T15:09:13;0.70;;;0.70;;
39340;SDS011;25059;52.132;21.062;2023-05-14T15:11:57;0.70;;;0.70;;
39340;SDS011;25059;52.132;21.062;2023-05-14T15:14:42;0.55;;;0.55;;
39340;SDS011;25059;52.132;21.062;2023-05-14T15:17:26;0.50;;;0.50;;
39340;SDS011;25059;52.132;21.062;2023-05-14T15:20:11;0.50;;;0.50;;
39340;SDS011;25059;52.132;21.062;2023-05-14T15:22:55;0.50;;;0.50;;
39340;SDS011;25059;52.132;21.062;2023-05-14T15:25:40;0.30;;;0.30;;
39340;SDS011;25059;52.132;21.062;2023-05-14T15:28:25;0.30;;;0.30;;
39340;SDS011;25059;52.132;21.062;2023-05-14T15:31:09;0.30;;;0.30;;
39340;SDS011;25059;52.132;21.062;2023-05-14T15:33:56;0.30;;;0.30;;
39340;SDS011;25059;52.132;21.062;2023-05-14T15:36:40;0.20;;;0.20;;
39340;SDS011;25059;52.132;21.062;2023-05-14T15:39:25;0.20;;;0.20;;
39340;SDS011;25059;52.132;21.062;2023-05-14T15:42:10;0.30;;;0.30;;
39340;SDS011;25059;52.132;21.062;2023-05-14T15:44:54;0.22;;;0.22;;
39340;SDS011;25059;52.132;21.062;2023-05-14T15:47:39;0.20;;;0.20;;
39340;SDS011;25059;52.132;21.062;2023-05-14T15:50:24;0.20;;;0.20;;
39340;SDS011;25059;52.132;21.062;2023-05-14T15:53:10;0.15;;;0.15;;
39340;SDS011;25059;52.132;21.062;2023-05-14T15:55:55;0.20;;;0.20;;
39340;SDS011;25059;52.132;21.062;2023-05-14T15:58:39;0.10;;;0.10;;
39340;SDS011;25059;52.132;21.062;2023-05-14T16:01:24;0.20;;;0.20;;
39340;SDS011;25059;52.132;21.062;2023-05-14T16:04:08;0.22;;;0.22;;
39340;SDS011;25059;52.132;21.062;2023-05-14T16:06:53;0.30;;;0.30;;
39340;SDS011;25059;52.132;21.062;2023-05-14T16:09:37;0.30;;;0.30;;
39340;SDS011;25059;52.132;21.062;2023-05-14T16:12:22;0.40;;;0.40;;
39340;SDS011;25059;52.132;21.062;2023-05-14T16:15:06;0.45;;;0.45;;
39340;SDS011;25059;52.132;21.062;2023-05-14T16:17:52;0.40;;;0.40;;
39340;SDS011;25059;52.132;21.062;2023-05-14T16:20:36;0.40;;;0.40;;
39340;SDS011;25059;52.132;21.062;2023-05-14T16:23:21;0.30;;;0.30;;
39340;SDS011;25059;52.132;21.062;2023-05-14T16:26:05;0.52;;;0.52;;
39340;SDS011;25059;52.132;21.062;2023-05-14T16:28:50;0.40;;;0.40;;
39340;SDS011;25059;52.132;21.062;2023-05-14T16:31:34;0.45;;;0.45;;
39340;SDS011;25059;52.132;21.062;2023-05-14T16:34:19;0.30;;;0.30;;
39340;SDS011;25059;52.132;21.062;2023-05-14T16:37:04;0.50;;;0.50;;
39340;SDS011;25059;52.132;21.062;2023-05-14T16:39:48;0.52;;;0.52;;
39340;SDS011;25059;52.132;21.062;2023-05-14T16:42:32;0.30;;;0.30;;
39340;SDS011;25059;52.132;21.062;2023-05-14T16:45:17;0.40;;;0.40;;
39340;SDS011;25059;52.132;21.062;2023-05-14T16:48:02;0.30;;;0.30;;
39340;SDS011;25059;52.132;21.062;2023-05-14T16:50:47;0.10;;;0.10;;
39340;SDS011;25059;52.132;21.062;2023-05-14T16:53:31;0.20;;;0.20;;
39340;SDS011;25059;52.132;21.062;2023-05-14T16:56:16;0.20;;;0.20;;
39340;SDS011;25059;52.132;21.062;2023-05-14T16:59:00;0.35;;;0.35;;
39340;SDS011;25059;52.132;21.062;2023-05-14T17:01:45;0.38;;;0.38;;
39340;SDS011;25059;52.132;21.062;2023-05-14T17:04:31;0.20;;;0.20;;
39340;SDS011;25059;52.132;21.062;2023-05-14T17:07:16;0.20;;;0.20;;
39340;SDS011;25059;52.132;21.062;2023-05-14T17:10:01;0.13;;;0.13;;
39340;SDS011;25059;52.132;21.062;2023-05-14T17:12:45;0.10;;;0.10;;
39340;SDS011;25059;52.132;21.062;2023-05-14T17:15:49;0.10;;;0.10;;
39340;SDS011;25059;52.132;21.062;2023-05-14T17:18:33;0.10;;;0.10;;
39340;SDS011;25059;52.132;21.062;2023-05-14T17:21:17;0.10;;;0.10;;
39340;SDS011;25059;52.132;21.062;2023-05-14T17:24:02;0.10;;;0.10;;
39340;SDS011;25059;52.132;21.062;2023-05-14T17:26:46;0.10;;;0.10;;
39340;SDS011;25059;52.132;21.062;2023-05-14T17:29:31;0.10;;;0.10;;
39340;SDS011;25059;52.132;21.062;2023-05-14T17:32:16;0.17;;;0.17;;
39340;SDS011;25059;52.132;21.062;2023-05-14T17:35:01;0.20;;;0.20;;
39340;SDS011;25059;52.132;21.062;2023-05-14T17:37:46;0.10;;;0.10;;
39340;SDS011;25059;52.132;21.062;2023-05-14T17:40:30;0.10;;;0.10;;
39340;SDS011;25059;52.132;21.062;2023-05-14T17:43:14;0.10;;;0.10;;
39340;SDS011;25059;52.132;21.062;2023-05-14T17:45:59;0.13;;;0.13;;
39340;SDS011;25059;52.132;21.062;2023-05-14T17:48:44;0.10;;;0.10;;
39340;SDS011;25059;52.132;21.062;2023-05-14T17:51:28;0.10;;;0.10;;
39340;SDS011;25059;52.132;21.062;2023-05-14T17:54:13;0.10;;;0.10;;
39340;SDS011;25059;52.132;21.062;2023-05-14T17:56:57;0.10;;;0.10;;
39340;SDS011;25059;52.132;21.062;2023-05-14T17:59:42;0.10;;;0.10;;
39340;SDS011;25059;52.132;21.062;2023-05-14T18:02:26;0.10;;;0.10;;
39340;SDS011;25059;52.132;21.062;2023-05-14T18:05:11;0.10;;;0.10;;
39340;SDS011;25059;52.132;21.062;2023-05-14T18:07:56;0.10;;;0.10;;
39340;SDS011;25059;52.132;21.062;2023-05-14T18:10:41;0.10;;;0.10;;
39340;SDS011;25059;52.132;21.062;2023-05-14T18:13:26;0.10;;;0.10;;
39340;SDS011;25059;52.132;21.062;2023-05-14T18:16:10;0.10;;;0.10;;
39340;SDS011;25059;52.132;21.062;2023-05-14T18:18:55;0.10;;;0.10;;
39340;SDS011;25059;52.132;21.062;2023-05-14T18:21:39;0.10;;;0.10;;
39340;SDS011;25059;52.132;21.062;2023-05-14T18:24:24;0.10;;;0.10;;
39340;SDS011;25059;52.132;21.062;2023-05-14T18:27:09;0.10;;;0.10;;
39340;SDS011;25059;52.132;21.062;2023-05-14T18:29:53;0.20;;;0.20;;
39340;SDS011;25059;52.132;21.062;2023-05-14T18:32:38;0.13;;;0.13;;
39340;SDS011;25059;52.132;21.062;2023-05-14T18:35:24;0.10;;;0.10;;
39340;SDS011;25059;52.132;21.062;2023-05-14T18:38:08;0.10;;;0.10;;
39340;SDS011;25059;52.132;21.062;2023-05-14T18:40:54;0.17;;;0.17;;
39340;SDS011;25059;52.132;21.062;2023-05-14T18:43:39;0.10;;;0.10;;
39340;SDS011;25059;52.132;21.062;2023-05-14T18:46:23;0.10;;;0.10;;
39340;SDS011;25059;52.132;21.062;2023-05-14T18:49:08;0.10;;;0.10;;
39340;SDS011;25059;52.132;21.062;2023-05-14T18:51:53;0.10;;;0.10;;
39340;SDS011;25059;52.132;21.062;2023-05-14T18:54:37;0.10;;;0.10;;
39340;SDS011;25059;52.132;21.062;2023-05-14T18:57:23;0.10;;;0.10;;
39340;SDS011;25059;52.132;21.062;2023-05-14T19:00:12;0.10;;;0.10;;
39340;SDS011;25059;52.132;21.062;2023-05-14T19:02:57;0.10;;;0.10;;
39340;SDS011;25059;52.132;21.062;2023-05-14T19:05:41;0.10;;;0.10;;
39340;SDS011;25059;52.132;21.062;2023-05-14T19:08:26;0.10;;;0.10;;
39340;SDS011;25059;52.132;21.062;2023-05-14T19:11:10;0.10;;;0.10;;
39340;SDS011;25059;52.132;21.062;2023-05-14T19:13:55;0.10;;;0.10;;
39340;SDS011;25059;52.132;21.062;2023-05-14T19:16:40;0.10;;;0.10;;
39340;SDS011;25059;52.132;21.062;2023-05-14T19:19:24;0.10;;;0.10;;
39340;SDS011;25059;52.132;21.062;2023-05-14T19:22:09;0.10;;;0.10;;
39340;SDS011;25059;52.132;21.062;2023-05-14T19:24:53;0.10;;;0.10;;
39340;SDS011;25059;52.132;21.062;2023-05-14T19:27:38;0.20;;;0.20;;
39340;SDS011;25059;52.132;21.062;2023-05-14T19:30:22;0.10;;;0.10;;
39340;SDS011;25059;52.132;21.062;2023-05-14T19:33:07;0.10;;;0.10;;
39340;SDS011;25059;52.132;21.062;2023-05-14T19:35:51;0.10;;;0.10;;
39340;SDS011;25059;52.132;21.062;2023-05-14T19:38:36;0.10;;;0.10;;
39340;SDS011;25059;52.132;21.062;2023-05-14T19:41:20;0.20;;;0.20;;
39340;SDS011;25059;52.132;21.062;2023-05-14T19:44:06;0.10;;;0.10;;
39340;SDS011;25059;52.132;21.062;2023-05-14T19:46:50;0.20;;;0.20;;
39340;SDS011;25059;52.132;21.062;2023-05-14T19:49:35;0.10;;;0.10;;
39340;SDS011;25059;52.132;21.062;2023-05-14T19:52:20;0.10;;;0.10;;
39340;SDS011;25059;52.132;21.062;2023-05-14T19:55:05;0.20;;;0.20;;
39340;SDS011;25059;52.132;21.062;2023-05-14T19:57:50;0.10;;;0.10;;
39340;SDS011;25059;52.132;21.062;2023-05-14T20:00:34;0.10;;;0.10;;
39340;SDS011;25059;52.132;21.062;2023-05-14T20:03:19;0.15;;;0.15;;
39340;SDS011;25059;52.132;21.062;2023-05-14T20:06:06;0.20;;;0.20;;
39340;SDS011;25059;52.132;21.062;2023-05-14T20:08:51;0.10;;;0.10;;
39340;SDS011;25059;52.132;21.062;2023-05-14T20:11:35;0.20;;;0.20;;
39340;SDS011;25059;52.132;21.062;2023-05-14T20:14:20;0.20;;;0.20;;
39340;SDS011;25059;52.132;21.062;2023-05-14T20:17:04;0.10;;;0.10;;
39340;SDS011;25059;52.132;21.062;2023-05-14T20:19:49;0.20;;;0.20;;
39340;SDS011;25059;52.132;21.062;2023-05-14T20:22:35;0.20;;;0.20;;
39340;SDS011;25059;52.132;21.062;2023-05-14T20:25:21;0.20;;;0.20;;
39340;SDS011;25059;52.132;21.062;2023-05-14T20:28:06;0.10;;;0.10;;
39340;SDS011;25059;52.132;21.062;2023-05-14T20:30:50;0.10;;;0.10;;
39340;SDS011;25059;52.132;21.062;2023-05-14T20:33:35;0.10;;;0.10;;
39340;SDS011;25059;52.132;21.062;2023-05-14T20:36:20;0.13;;;0.13;;
39340;SDS011;25059;52.132;21.062;2023-05-14T20:39:05;0.10;;;0.10;;
39340;SDS011;25059;52.132;21.062;2023-05-14T20:41:49;0.10;;;0.10;;
39340;SDS011;25059;52.132;21.062;2023-05-14T20:44:35;0.20;;;0.20;;
39340;SDS011;25059;52.132;21.062;2023-05-14T20:47:19;0.20;;;0.20;;
39340;SDS011;25059;52.132;21.062;2023-05-14T20:50:07;0.10;;;0.10;;
39340;SDS011;25059;52.132;21.062;2023-05-14T20:52:52;0.10;;;0.10;;
39340;SDS011;25059;52.132;21.062;2023-05-14T20:55:38;0.10;;;0.10;;
39340;SDS011;25059;52.132;21.062;2023-05-14T20:58:24;0.10;;;0.10;;
39340;SDS011;25059;52.132;21.062;2023-05-14T21:01:09;0.20;;;0.20;;
39340;SDS011;25059;52.132;21.062;2023-05-14T21:03:53;0.20;;;0.20;;
39340;SDS011;25059;52.132;21.062;2023-05-14T21:06:38;0.20;;;0.20;;
39340;SDS011;25059;52.132;21.062;2023-05-14T21:09:22;0.10;;;0.10;;
39340;SDS011;25059;52.132;21.062;2023-05-14T21:12:07;0.10;;;0.10;;
39340;SDS011;25059;52.132;21.062;2023-05-14T21:14:52;0.10;;;0.10;;
39340;SDS011;25059;52.132;21.062;2023-05-14T21:17:37;0.10;;;0.10;;
39340;SDS011;25059;52.132;21.062;2023-05-14T21:20:21;0.10;;;0.10;;
39340;SDS011;25059;52.132;21.062;2023-05-14T21:23:06;0.10;;;0.10;;
39340;SDS011;25059;52.132;21.062;2023-05-14T21:25:50;0.10;;;0.10;;
39340;SDS011;25059;52.132;21.062;2023-05-14T21:28:38;0.20;;;0.20;;
39340;SDS011;25059;52.132;21.062;2023-05-14T21:31:22;0.20;;;0.20;;
39340;SDS011;25059;52.132;21.062;2023-05-14T21:34:07;0.10;;;0.10;;
39340;SDS011;25059;52.132;21.062;2023-05-14T21:36:51;0.20;;;0.20;;
39340;SDS011;25059;52.132;21.062;2023-05-14T21:39:36;0.20;;;0.20;;
39340;SDS011;25059;52.132;21.062;2023-05-14T21:42:20;0.10;;;0.10;;
39340;SDS011;25059;52.132;21.062;2023-05-14T21:45:05;0.10;;;0.10;;
39340;SDS011;25059;52.132;21.062;2023-05-14T21:47:50;0.10;;;0.10;;
39340;SDS011;25059;52.132;21.062;2023-05-14T21:50:35;0.10;;;0.10;;
39340;SDS011;25059;52.132;21.062;2023-05-14T21:53:20;0.10;;;0.10;;
39340;SDS011;25059;52.132;21.062;2023-05-14T21:56:04;0.10;;;0.10;;
39340;SDS011;25059;52.132;21.062;2023-05-14T21:58:50;0.10;;;0.10;;
39340;SDS011;25059;52.132;21.062;2023-05-14T22:01:34;0.10;;;0.10;;
39340;SDS011;25059;52.132;21.062;2023-05-14T22:04:19;0.20;;;0.20;;
39340;SDS011;25059;52.132;21.062;2023-05-14T22:07:03;0.10;;;0.10;;
39340;SDS011;25059;52.132;21.062;2023-05-14T22:09:48;0.10;;;0.10;;
39340;SDS011;25059;52.132;21.062;2023-05-14T22:12:32;0.10;;;0.10;;
39340;SDS011;25059;52.132;21.062;2023-05-14T22:15:17;0.20;;;0.20;;
39340;SDS011;25059;52.132;21.062;2023-05-14T22:18:01;0.10;;;0.10;;
39340;SDS011;25059;52.132;21.062;2023-05-14T22:20:46;0.10;;;0.10;;
39340;SDS011;25059;52.132;21.062;2023-05-14T22:23:30;0.20;;;0.20;;
39340;SDS011;25059;52.132;21.062;2023-05-14T22:26:15;0.20;;;0.20;;
39340;SDS011;25059;52.132;21.062;2023-05-14T22:29:00;0.10;;;0.10;;
39340;SDS011;25059;52.132;21.062;2023-05-14T22:31:44;0.10;;;0.10;;
39340;SDS011;25059;52.132;21.062;2023-05-14T22:34:29;0.10;;;0.10;;
39340;SDS011;25059;52.132;21.062;2023-05-14T22:37:14;0.10;;;0.10;;
39340;SDS011;25059;52.132;21.062;2023-05-14T22:39:59;0.20;;;0.20;;
39340;SDS011;25059;52.132;21.062;2023-05-14T22:42:45;0.10;;;0.10;;
39340;SDS011;25059;52.132;21.062;2023-05-14T22:45:30;0.10;;;0.10;;
39340;SDS011;25059;52.132;21.062;2023-05-14T22:48:14;0.10;;;0.10;;
39340;SDS011;25059;52.132;21.062;2023-05-14T22:50:59;0.20;;;0.20;;
39340;SDS011;25059;52.132;21.062;2023-05-14T22:53:44;0.17;;;0.17;;
39340;SDS011;25059;52.132;21.062;2023-05-14T22:56:30;0.10;;;0.10;;
39340;SDS011;25059;52.132;21.062;2023-05-14T22:59:15;0.10;;;0.10;;
39340;SDS011;25059;52.132;21.062;2023-05-14T23:02:00;0.10;;;0.10;;
39340;SDS011;25059;52.132;21.062;2023-05-14T23:04:44;0.10;;;0.10;;
39340;SDS011;25059;52.132;21.062;2023-05-14T23:07:29;0.20;;;0.20;;
39340;SDS011;25059;52.132;21.062;2023-05-14T23:10:13;0.20;;;0.20;;
39340;SDS011;25059;52.132;21.062;2023-05-14T23:12:58;0.20;;;0.20;;
39340;SDS011;25059;52.132;21.062;2023-05-14T23:15:42;0.10;;;0.10;;
39340;SDS011;25059;52.132;21.062;2023-05-14T23:18:27;0.10;;;0.10;;
39340;SDS011;25059;52.132;21.062;2023-05-14T23:21:11;0.10;;;0.10;;
39340;SDS011;25059;52.132;21.062;2023-05-14T23:23:57;0.20;;;0.20;;
39340;SDS011;25059;52.132;21.062;2023-05-14T23:26:42;0.10;;;0.10;;
39340;SDS011;25059;52.132;21.062;2023-05-14T23:29:27;0.10;;;0.10;;
39340;SDS011;25059;52.132;21.062;2023-05-14T23:32:11;0.20;;;0.20;;
39340;SDS011;25059;52.132;21.062;2023-05-14T23:34:56;0.10;;;0.10;;
39340;SDS011;25059;52.132;21.062;2023-05-14T23:37:40;0.20;;;0.20;;
39340;SDS011;25059;52.132;21.062;2023-05-14T23:40:30;0.10;;;0.10;;
39340;SDS011;25059;52.132;21.062;2023-05-14T23:43:15;0.10;;;0.10;;
39340;SDS011;25059;52.132;21.062;2023-05-14T23:46:00;0.10;;;0.10;;
39340;SDS011;25059;52.132;21.062;2023-05-14T23:48:44;0.10;;;0.10;;
39340;SDS011;25059;52.132;21.062;2023-05-14T23:51:29;0.10;;;0.10;;
39340;SDS011;25059;52.132;21.062;2023-05-14T23:54:13;0.10;;;0.10;;
39340;SDS011;25059;52.132;21.062;2023-05-14T23:56:58;0.10;;;0.10;;
39340;SDS011;25059;52.132;21.062;2023-05-14T23:59:42;0.20;;;0.20;;
